Time;durP1;ratioP1;P1;durP2;ratioP2;P2;SDS_P1;SDS_P2;PMS_P1;PMS_P2;Temp;Humidity;BMP_temperature;BMP_pressure;BME280_temperature;BME280_humidity;BME280_pressure;Samples;Min_cycle;Max_cycle;Signal;HPM_P1;HPM_P2
2023/06/10 00:00:00;;;;;;;3.38;2.30;;;17.10;99.90;;;;;;5013511;28;19991;-72
2023/06/10 00:02:27;;;;;;;;;;;17.00;99.90;;;;;;4980289;28;20050;-72
2023/06/10 00:04:52;;;;;;;4.05;3.00;;;17.00;99.90;;;;;;4995369;28;19917;-72
2023/06/10 00:07:18;;;;;;;;;;;17.00;99.90;;;;;;4980062;28;20100;-72
2023/06/10 00:09:44;;;;;;;4.28;2.85;;;17.00;99.90;;;;;;4995472;28;20382;-72
2023/06/10 00:12:10;;;;;;;6.40;2.80;;;16.90;99.90;;;;;;4995873;28;20050;-72
2023/06/10 00:14:37;;;;;;;4.15;2.80;;;16.90;99.90;;;;;;4979664;28;20383;-72
2023/06/10 00:17:03;;;;;;;4.07;2.30;;;16.80;99.90;;;;;;4995409;28;20128;-72
2023/06/10 00:19:33;;;;;;;;;;;16.80;99.90;;;;;;4979119;28;20048;-72
2023/06/10 00:21:59;;;;;;;3.10;2.40;;;16.70;99.90;;;;;;4979484;28;20008;-71
2023/06/10 00:24:25;;;;;;;2.70;2.20;;;16.60;99.90;;;;;;4995119;28;20137;-72
2023/06/10 00:26:50;;;;;;;5.15;2.55;;;16.60;99.90;;;;;;4995428;28;20513;-72
2023/06/10 00:29:16;;;;;;;3.20;2.50;;;16.60;99.90;;;;;;4995211;28;20050;-71
2023/06/10 00:31:45;;;;;;;3.90;2.60;;;16.60;99.90;;;;;;4995148;28;20085;-72
2023/06/10 00:34:11;;;;;;;2.63;2.00;;;16.60;99.90;;;;;;4978826;28;20049;-72
2023/06/10 00:36:37;;;;;;;3.63;2.40;;;16.50;99.90;;;;;;4978887;28;20069;-72
2023/06/10 00:39:04;;;;;;;2.28;1.90;;;16.50;99.90;;;;;;4979042;28;20089;-72
2023/06/10 00:41:30;;;;;;;3.28;2.22;;;16.50;99.90;;;;;;5012861;28;20475;-72
2023/06/10 00:43:56;;;;;;;2.85;1.92;;;16.50;99.90;;;;;;4995029;28;20498;-72
2023/06/10 00:46:23;;;;;;;2.72;1.83;;;16.40;99.90;;;;;;5011731;28;20042;-72
2023/06/10 00:48:49;;;;;;;3.38;2.20;;;16.40;99.90;;;;;;4995094;28;20096;-72
2023/06/10 00:51:19;;;;;;;3.05;2.13;;;16.30;99.90;;;;;;4994863;28;20133;-72
2023/06/10 00:53:45;;;;;;;2.42;1.90;;;16.30;99.90;;;;;;4994747;28;20147;-73
2023/06/10 00:56:11;;;;;;;5.18;2.60;;;16.20;99.90;;;;;;4995126;28;20115;-72
2023/06/10 00:58:37;;;;;;;2.58;1.85;;;16.20;99.90;;;;;;4994589;28;20466;-72
2023/06/10 01:01:03;;;;;;;4.85;2.10;;;16.10;99.90;;;;;;4978545;28;20054;-72
2023/06/10 01:03:30;;;;;;;4.50;2.17;;;16.10;99.90;;;;;;4978032;28;20046;-72
2023/06/10 01:06:06;;;;;;;2.83;2.20;;;16.00;99.90;;;;;;4994744;28;20124;-72
2023/06/10 01:08:46;;;;;;;3.33;2.03;;;16.00;99.90;;;;;;4994811;28;20137;-72
2023/06/10 01:11:20;;;;;;;2.90;2.20;;;16.00;99.90;;;;;;4994492;28;20046;-72
2023/06/10 01:13:51;;;;;;;2.70;1.90;;;15.90;99.90;;;;;;4977983;28;20530;-72
2023/06/10 01:16:18;;;;;;;2.53;2.00;;;15.90;99.90;;;;;;4993944;28;20052;-72
2023/06/10 01:18:44;;;;;;;3.00;2.20;;;15.80;99.90;;;;;;4994113;28;20054;-72
2023/06/10 01:21:13;;;;;;;3.83;2.20;;;15.80;99.90;;;;;;4977894;28;20046;-72
2023/06/10 01:23:39;;;;;;;2.70;2.10;;;15.80;99.90;;;;;;4978034;28;20479;-72
2023/06/10 01:26:10;;;;;;;3.72;2.13;;;15.80;1.00;;;;;;4993826;28;20089;-72
2023/06/10 01:29:10;;;;;;;3.33;2.30;;;15.70;1.00;;;;;;4978012;28;20046;-72
2023/06/10 01:31:49;;;;;;;3.80;2.50;;;15.70;1.00;;;;;;4994430;28;20463;-72
2023/06/10 01:34:17;;;;;;;3.45;2.38;;;15.60;1.00;;;;;;4993766;28;20073;-73
2023/06/10 01:36:47;;;;;;;2.70;2.20;;;15.60;1.00;;;;;;5011725;28;20145;-73
2023/06/10 01:39:16;;;;;;;3.85;2.00;;;15.60;1.00;;;;;;5011901;28;20064;-73
2023/06/10 01:41:42;;;;;;;3.13;2.15;;;15.60;1.00;;;;;;4993501;28;20120;-73
2023/06/10 01:44:09;;;;;;;2.80;1.90;;;15.50;1.00;;;;;;4977663;28;20501;-73
2023/06/10 01:46:35;;;;;;;2.85;1.80;;;15.40;32.50;;;;;;4994066;28;20042;-73
2023/06/10 01:49:00;;;;;;;2.30;1.90;;;15.40;74.80;;;;;;4993814;28;20482;-73
2023/06/10 01:51:26;;;;;;;3.53;2.47;;;15.30;99.90;;;;;;4993744;28;20442;-73
2023/06/10 01:53:52;;;;;;;2.95;1.92;;;15.30;99.90;;;;;;4993682;28;20060;-71
2023/06/10 01:56:19;;;;;;;3.05;1.90;;;15.20;99.90;;;;;;4993630;28;20048;-72
2023/06/10 01:58:46;;;;;;;3.25;2.10;;;15.20;99.90;;;;;;5009514;28;20056;-72
2023/06/10 02:01:11;;;;;;;3.20;1.90;;;15.10;99.90;;;;;;4993370;28;20052;-73
2023/06/10 02:03:37;;;;;;;2.95;1.92;;;15.10;99.90;;;;;;4993885;28;20038;-72
2023/06/10 02:06:03;;;;;;;2.88;1.95;;;15.00;99.90;;;;;;4993446;28;20034;-73
2023/06/10 02:08:29;;;;;;;2.75;2.00;;;14.90;99.90;;;;;;4993533;28;20121;-72
2023/06/10 02:10:54;;;;;;;3.05;1.83;;;14.90;1.00;;;;;;4993454;28;20069;-72
2023/06/10 02:13:20;;;;;;;4.82;2.42;;;14.80;99.90;;;;;;4977265;28;20053;-72
2023/06/10 02:15:46;;;;;;;2.70;2.10;;;14.80;1.00;;;;;;4977249;28;20048;-73
2023/06/10 02:18:11;;;;;;;3.08;2.05;;;14.70;2.80;;;;;;4992823;28;20041;-73
2023/06/10 02:20:40;;;;;;;3.55;2.40;;;14.70;1.00;;;;;;4993323;28;20061;-72
2023/06/10 02:23:06;;;;;;;3.20;2.13;;;14.60;99.90;;;;;;5009452;28;20077;-73
2023/06/10 02:25:31;;;;;;;3.05;1.90;;;14.60;99.90;;;;;;4960951;28;20108;-72
2023/06/10 02:27:57;;;;;;;3.40;2.13;;;14.50;99.90;;;;;;5023393;28;20045;-72
2023/06/10 02:30:23;;;;;;;4.13;2.13;;;14.50;1.00;;;;;;4976640;28;20391;-72
2023/06/10 02:32:50;;;;;;;4.07;2.08;;;14.50;99.90;;;;;;4993335;28;20046;-72
2023/06/10 02:35:17;;;;;;;3.03;2.20;;;14.40;1.00;;;;;;4992954;28;20056;-72
2023/06/10 02:37:43;;;;;;;1.83;1.58;;;14.40;99.90;;;;;;4976953;28;20181;-72
2023/06/10 02:40:10;;;;;;;3.70;2.15;;;14.40;1.00;;;;;;4976722;28;20391;-73
2023/06/10 02:42:36;;;;;;;3.15;1.95;;;14.40;4.40;;;;;;4968625;28;20167;-73
2023/06/10 02:45:02;;;;;;;2.72;1.70;;;14.40;68.80;;;;;;4973456;28;20049;-73
2023/06/10 02:47:28;;;;;;;3.38;2.05;;;14.40;42.40;;;;;;4973626;28;20480;-72
2023/06/10 02:49:54;;;;;;;3.13;1.95;;;14.40;99.90;;;;;;4973340;28;20092;-71
2023/06/10 02:52:20;;;;;;;2.95;1.92;;;14.40;69.40;;;;;;4973354;28;20081;-73
2023/06/10 02:54:46;;;;;;;3.50;2.13;;;14.40;99.90;;;;;;4957569;28;20449;-72
2023/06/10 02:57:12;;;;;;;4.30;2.33;;;14.30;97.30;;;;;;4974249;28;20269;-72
2023/06/10 02:59:37;;;;;;;2.95;1.80;;;14.30;99.90;;;;;;4989581;28;20121;-73
2023/06/10 03:02:03;;;;;;;2.58;1.88;;;14.30;99.90;;;;;;4973547;28;20038;-72
2023/06/10 03:04:30;;;;;;;2.95;1.90;;;14.30;99.90;;;;;;4973479;28;20046;-72
2023/06/10 03:06:56;;;;;;;3.95;2.33;;;14.30;99.90;;;;;;4973668;28;20333;-72
2023/06/10 03:09:21;;;;;;;3.80;2.00;;;14.30;99.90;;;;;;4976829;28;20403;-73
2023/06/10 03:11:47;;;;;;;4.57;2.10;;;14.30;99.90;;;;;;5014113;28;20051;-73
2023/06/10 03:14:13;;;;;;;2.53;1.67;;;14.20;99.90;;;;;;4996942;28;20468;-73
2023/06/10 03:16:40;;;;;;;4.38;2.35;;;14.20;99.90;;;;;;4996464;28;20412;-73
2023/06/10 03:19:07;;;;;;;3.53;2.22;;;14.20;1.00;;;;;;4976756;28;20053;-73
2023/06/10 03:21:34;;;;;;;3.20;2.05;;;14.20;1.00;;;;;;4976975;28;20553;-72
2023/06/10 03:24:00;;;;;;;2.80;1.90;;;14.20;1.00;;;;;;4995049;28;20038;-72
2023/06/10 03:26:27;;;;;;;2.70;1.80;;;14.20;34.50;;;;;;4996459;28;20160;-72
2023/06/10 03:28:53;;;;;;;3.47;2.17;;;14.20;59.30;;;;;;4996044;28;20077;-72
2023/06/10 03:31:19;;;;;;;5.32;2.13;;;14.20;59.10;;;;;;4996519;28;20116;-73
2023/06/10 03:33:45;;;;;;;4.57;2.05;;;14.10;14.60;;;;;;4996157;28;20469;-72
2023/06/10 03:36:10;;;;;;;2.90;2.08;;;14.20;71.50;;;;;;4979714;28;20046;-72
2023/06/10 03:38:36;;;;;;;4.20;2.30;;;14.10;74.20;;;;;;4947926;28;20050;-72
2023/06/10 03:41:03;;;;;;;4.13;2.22;;;14.20;99.90;;;;;;5013744;28;20049;-72
2023/06/10 03:43:28;;;;;;;2.63;2.05;;;14.10;99.90;;;;;;4995868;28;20406;-72
2023/06/10 03:45:54;;;;;;;4.45;2.35;;;14.10;99.90;;;;;;4996013;28;20053;-72
2023/06/10 03:48:20;;;;;;;3.28;2.17;;;14.10;99.90;;;;;;4963871;28;20406;-72
2023/06/10 03:50:47;;;;;;;;;;;14.10;99.90;;;;;;4980222;28;20053;-72
2023/06/10 03:53:13;;;;;;;4.70;2.40;;;14.10;99.90;;;;;;4979253;28;20425;-73
2023/06/10 03:55:39;;;;;;;3.97;2.10;;;14.10;99.90;;;;;;4995621;28;20129;-72
2023/06/10 03:58:05;;;;;;;2.67;1.80;;;14.10;99.90;;;;;;4995605;28;20092;-72
2023/06/10 04:00:30;;;;;;;2.75;1.92;;;14.10;99.90;;;;;;4979402;28;20454;-73
2023/06/10 04:02:57;;;;;;;4.15;2.20;;;14.10;99.90;;;;;;5013183;28;20045;-73
2023/06/10 04:05:23;;;;;;;3.42;2.10;;;14.10;99.90;;;;;;4995971;28;20121;-73
2023/06/10 04:07:49;;;;;;;3.75;2.30;;;14.10;99.90;;;;;;4995682;28;20162;-73
2023/06/10 04:10:15;;;;;;;4.22;2.65;;;14.10;99.90;;;;;;4978700;28;20432;-73
2023/06/10 04:12:42;;;;;;;5.70;2.50;;;14.10;99.90;;;;;;4979266;28;20100;-72
2023/06/10 04:15:07;;;;;;;;;;;14.10;99.90;;;;;;5013481;28;20091;-73
2023/06/10 04:17:34;;;;;;;3.80;2.33;;;14.10;99.90;;;;;;4995224;28;19921;-73
2023/06/10 04:20:00;;;;;;;3.67;2.30;;;14.20;99.90;;;;;;4978345;28;20120;-73
2023/06/10 04:22:26;;;;;;;;;;;14.20;99.90;;;;;;4995786;28;20044;-72
2023/06/10 04:24:52;;;;;;;6.50;2.95;;;14.20;99.90;;;;;;4994698;28;19926;-72
2023/06/10 04:27:18;;;;;;;4.63;2.95;;;14.20;99.90;;;;;;4963251;28;20038;-72
2023/06/10 04:29:43;;;;;;;5.40;2.55;;;14.20;99.90;;;;;;4979013;28;20042;-72
2023/06/10 04:32:09;;;;;;;7.35;3.08;;;14.20;99.90;;;;;;4994991;28;20041;-72
2023/06/10 04:34:35;;;;;;;4.35;2.70;;;14.30;99.90;;;;;;4995099;28;20042;-72
2023/06/10 04:37:01;;;;;;;4.25;2.47;;;14.30;99.90;;;;;;4994929;28;20045;-72
2023/06/10 04:39:27;;;;;;;3.42;2.13;;;14.20;99.90;;;;;;4995197;28;20071;-73
2023/06/10 04:41:52;;;;;;;3.70;2.47;;;14.30;99.90;;;;;;4995003;28;20457;-72
2023/06/10 04:44:18;;;;;;;4.20;2.20;;;14.30;99.90;;;;;;5012288;28;20046;-71
2023/06/10 04:46:45;;;;;;;4.03;2.38;;;14.30;99.90;;;;;;4978583;28;20052;-73
2023/06/10 04:49:14;;;;;;;6.03;2.22;;;14.30;99.90;;;;;;4994756;28;20104;-72
2023/06/10 04:51:40;;;;;;;5.93;2.42;;;14.30;99.90;;;;;;5012404;28;20136;-72
2023/06/10 04:54:05;;;;;;;5.00;2.78;;;14.40;99.90;;;;;;4994500;28;20160;-72
2023/06/10 04:56:31;;;;;;;5.13;2.70;;;14.40;99.90;;;;;;5010846;28;20493;-72
2023/06/10 04:58:57;;;;;;;6.47;2.72;;;14.40;99.90;;;;;;4993141;28;20424;-72
2023/06/10 05:01:23;;;;;;;;;;;14.50;99.90;;;;;;4993799;28;20435;-71
2023/06/10 05:03:49;;;;;;;5.88;2.55;;;14.50;99.90;;;;;;4994404;28;19980;-72
2023/06/10 05:06:15;;;;;;;4.05;2.60;;;14.50;99.90;;;;;;5011556;28;20041;-72
2023/06/10 05:08:40;;;;;;;5.90;3.30;;;14.60;99.90;;;;;;4994003;28;20468;-73
2023/06/10 05:11:06;;;;;;;5.60;3.20;;;14.60;99.90;;;;;;4994456;28;20087;-72
2023/06/10 05:13:32;;;;;;;5.55;2.83;;;14.60;99.90;;;;;;4994097;28;20042;-72
2023/06/10 05:15:58;;;;;;;4.60;2.83;;;14.70;99.90;;;;;;4978288;28;20054;-72
2023/06/10 05:18:24;;;;;;;4.57;2.55;;;14.70;99.90;;;;;;4994409;28;20042;-72
2023/06/10 05:20:50;;;;;;;4.68;2.63;;;14.80;99.90;;;;;;4994271;28;20045;-72
2023/06/10 05:23:15;;;;;;;3.75;2.50;;;14.80;99.90;;;;;;4977532;28;20049;-72
2023/06/10 05:25:42;;;;;;;4.30;2.30;;;14.80;99.90;;;;;;4993977;28;20054;-72
2023/06/10 05:28:11;;;;;;;3.95;2.58;;;14.80;99.90;;;;;;4993989;28;20119;-72
2023/06/10 05:30:37;;;;;;;3.38;2.35;;;14.90;99.90;;;;;;4978231;28;20430;-72
2023/06/10 05:33:04;;;;;;;4.95;2.83;;;15.00;99.90;;;;;;4977180;28;20042;-73
2023/06/10 05:35:29;;;;;;;7.10;3.00;;;15.00;99.90;;;;;;4994079;28;20046;-72
2023/06/10 05:37:55;;;;;;;5.50;2.67;;;15.10;99.90;;;;;;4993807;28;20056;-71
2023/06/10 05:40:21;;;;;;;6.07;3.20;;;15.10;99.90;;;;;;4994047;28;20051;-73
2023/06/10 05:42:47;;;;;;;5.50;3.08;;;15.20;99.90;;;;;;4993899;28;20443;-72
2023/06/10 05:45:12;;;;;;;5.28;3.05;;;15.20;99.90;;;;;;4993716;28;20099;-72
2023/06/10 05:47:38;;;;;;;5.97;3.28;;;15.30;99.90;;;;;;4977649;28;20049;-72
2023/06/10 05:50:08;;;;;;;5.28;2.75;;;15.30;99.90;;;;;;4993465;28;20400;-72
2023/06/10 05:52:35;;;;;;;5.32;2.60;;;15.60;99.90;;;;;;4993640;28;20053;-72
2023/06/10 05:55:02;;;;;;;4.70;2.60;;;15.70;99.90;;;;;;4993430;28;20552;-73
2023/06/10 05:57:27;;;;;;;3.53;1.95;;;15.80;99.90;;;;;;4977089;28;20087;-72
2023/06/10 05:59:53;;;;;;;4.50;2.60;;;15.80;99.90;;;;;;4977237;28;20081;-72
2023/06/10 06:02:19;;;;;;;5.50;2.80;;;15.80;89.00;;;;;;4993450;28;20045;-72
2023/06/10 06:04:44;;;;;;;4.20;2.63;;;15.90;82.60;;;;;;4992839;28;20042;-72
2023/06/10 06:07:10;;;;;;;5.20;2.30;;;16.00;95.10;;;;;;5011249;28;20054;-71
2023/06/10 06:09:36;;;;;;;3.20;1.90;;;16.30;1.00;;;;;;5011243;28;20121;-72
2023/06/10 06:12:01;;;;;;;4.07;2.60;;;16.60;99.90;;;;;;4993099;28;20129;-71
2023/06/10 06:14:31;;;;;;;4.90;2.88;;;16.70;99.90;;;;;;4993503;28;20065;-71
2023/06/10 06:16:56;;;;;;;4.03;2.45;;;16.70;99.90;;;;;;4993692;28;20042;-72
2023/06/10 06:19:22;;;;;;;5.22;2.85;;;16.70;99.90;;;;;;4992632;28;20399;-72
2023/06/10 06:21:48;;;;;;;4.80;2.70;;;16.70;1.00;;;;;;4993385;28;20049;-72
2023/06/10 06:24:15;;;;;;;9.60;2.35;;;16.70;7.00;;;;;;4993204;28;20049;-72
2023/06/10 06:26:41;;;;;;;3.83;2.25;;;16.70;91.10;;;;;;4991707;28;20069;-72
2023/06/10 06:29:07;;;;;;;5.18;2.45;;;16.70;99.90;;;;;;4993034;28;20041;-72
2023/06/10 06:31:32;;;;;;;6.13;3.45;;;16.70;99.90;;;;;;4993208;28;20050;-72
2023/06/10 06:33:58;;;;;;;5.07;2.90;;;16.80;99.90;;;;;;4992573;28;20130;-72
2023/06/10 06:36:24;;;;;;;5.35;3.15;;;16.90;99.90;;;;;;4993135;28;20096;-72
2023/06/10 06:38:49;;;;;;;3.92;2.40;;;17.10;1.00;;;;;;4992933;28;20045;-72
2023/06/10 06:41:15;;;;;;;5.57;2.70;;;17.20;99.90;;;;;;4993028;28;20056;-73
2023/06/10 06:43:42;;;;;;;4.97;2.50;;;17.30;99.90;;;;;;4976295;28;20038;-72
2023/06/10 06:46:08;;;;;;;3.15;2.20;;;17.40;99.90;;;;;;4992527;28;20058;-72
2023/06/10 06:48:34;;;;;;;5.78;2.60;;;17.50;85.20;;;;;;4992939;28;20040;-72
2023/06/10 06:51:00;;;;;;;4.88;3.17;;;17.60;1.00;;;;;;4992692;28;20053;-72
2023/06/10 06:53:26;;;;;;;4.75;3.22;;;17.60;1.00;;;;;;4976674;28;20041;-72
2023/06/10 06:55:51;;;;;;;6.25;3.05;;;17.60;1.00;;;;;;4976552;28;20156;-72
2023/06/10 06:58:17;;;;;;;;;;;17.70;99.90;;;;;;4977182;28;20053;-73
2023/06/10 07:00:42;;;;;;;5.57;2.80;;;17.80;99.90;;;;;;4992243;28;20355;-73
2023/06/10 07:03:08;;;;;;;4.53;2.53;;;17.80;99.90;;;;;;4960508;28;20046;-72
2023/06/10 07:05:34;;;;;;;3.53;2.60;;;17.90;99.90;;;;;;4992655;28;20053;-72
2023/06/10 07:08:00;;;;;;;4.25;2.30;;;18.00;99.90;;;;;;4992902;28;20042;-72
2023/06/10 07:10:26;;;;;;;5.00;2.55;;;18.20;99.90;;;;;;4976592;28;20049;-72
2023/06/10 07:12:53;;;;;;;5.70;2.78;;;18.30;99.90;;;;;;4992467;28;20042;-72
2023/06/10 07:15:18;;;;;;;4.47;2.60;;;18.30;99.90;;;;;;4992556;28;20042;-72
2023/06/10 07:17:44;;;;;;;;;;;18.50;99.90;;;;;;4977164;28;20172;-72
2023/06/10 07:20:10;;;;;;;4.65;2.70;;;18.50;99.90;;;;;;4976284;28;20378;-72
2023/06/10 07:22:36;;;;;;;3.42;2.17;;;18.70;99.90;;;;;;4992600;28;20116;-72
2023/06/10 07:25:01;;;;;;;;;;;18.80;99.90;;;;;;4992673;28;20129;-73
2023/06/10 07:27:27;;;;;;;3.22;2.03;;;18.90;1.00;;;;;;4992633;28;19925;-72
2023/06/10 07:29:53;;;;;;;4.30;2.30;;;19.10;99.90;;;;;;5011566;28;20042;-73
2023/06/10 07:32:20;;;;;;;;;;;19.20;1.00;;;;;;4992614;28;20081;-73
2023/06/10 07:34:46;;;;;;;3.70;2.47;;;19.30;29.50;;;;;;4976523;28;19924;-72
2023/06/10 07:37:11;;;;;;;;;;;19.40;1.00;;;;;;4960714;28;20045;-72
2023/06/10 07:39:37;;;;;;;5.75;2.60;;;19.50;1.00;;;;;;4992663;28;19971;-72
2023/06/10 07:42:03;;;;;;;;;;;19.50;1.00;;;;;;4976523;28;20046;-73
2023/06/10 07:44:28;;;;;;;4.03;2.50;;;19.70;1.00;;;;;;4977509;28;19921;-73
2023/06/10 07:46:54;;;;;;;;;;;19.70;1.00;;;;;;4973406;28;20038;-72
2023/06/10 07:49:19;;;;;;;5.10;3.13;;;19.70;99.90;;;;;;4956831;28;20284;-73
2023/06/10 07:51:45;;;;;;;;;;;19.80;99.90;;;;;;4957304;28;20050;-72
2023/06/10 07:54:12;;;;;;;4.60;2.25;;;19.90;99.90;;;;;;4956765;28;20021;-73
2023/06/10 07:56:38;;;;;;;4.60;2.70;;;20.10;99.90;;;;;;4977008;28;20105;-72
2023/06/10 07:59:04;;;;;;;4.25;2.20;;;20.20;99.90;;;;;;4995580;28;20503;-72
2023/06/10 08:01:30;;;;;;;;;;;20.40;99.90;;;;;;4996198;28;20052;-72
2023/06/10 08:03:55;;;;;;;3.47;2.40;;;20.50;99.90;;;;;;4995186;28;20255;-71
2023/06/10 08:06:21;;;;;;;;;;;20.60;99.90;;;;;;4980031;28;20050;-72
2023/06/10 08:08:47;;;;;;;5.38;2.80;;;20.70;99.90;;;;;;4995458;28;19925;-72
2023/06/10 08:11:13;;;;;;;;;;;20.80;99.90;;;;;;4980029;28;20050;-73
2023/06/10 08:13:39;;;;;;;3.03;2.22;;;21.00;99.90;;;;;;5004371;28;19925;-72
2023/06/10 08:16:05;;;;;;;3.08;1.90;;;21.10;98.80;;;;;;4976109;28;20431;-72
2023/06/10 08:18:32;;;;;;;3.00;1.98;;;21.20;26.50;;;;;;5005163;28;20467;-72
2023/06/10 08:20:57;;;;;;;2.85;2.10;;;21.20;31.00;;;;;;5013133;28;20042;-71
2023/06/10 08:23:23;;;;;;;4.13;2.13;;;21.30;1.00;;;;;;4995199;28;20042;-72
2023/06/10 08:25:49;;;;;;;2.83;2.00;;;21.30;1.00;;;;;;4995217;28;20096;-72
2023/06/10 08:28:14;;;;;;;3.60;1.90;;;21.40;1.00;;;;;;4995180;28;20561;-71
2023/06/10 08:30:40;;;;;;;2.70;2.03;;;21.60;1.00;;;;;;4994581;28;20054;-72
2023/06/10 08:33:06;;;;;;;3.15;1.90;;;21.60;1.00;;;;;;4994986;28;20049;-72
2023/06/10 08:35:32;;;;;;;2.22;1.60;;;21.80;99.90;;;;;;4995399;28;20103;-72
2023/06/10 08:37:57;;;;;;;3.58;1.60;;;22.00;1.00;;;;;;4994780;28;20414;-72
2023/06/10 08:40:24;;;;;;;2.30;1.60;;;22.40;1.00;;;;;;4995050;28;20061;-72
2023/06/10 08:42:56;;;;;;;2.15;1.60;;;22.70;1.00;;;;;;4995027;28;20049;-72
2023/06/10 08:45:24;;;;;;;3.15;1.83;;;22.90;99.90;;;;;;4994520;28;20057;-72
2023/06/10 08:47:53;;;;;;;3.35;1.75;;;23.00;99.90;;;;;;5012546;28;20115;-72
2023/06/10 08:50:19;;;;;;;2.38;1.70;;;23.00;99.90;;;;;;4995467;28;20494;-73
2023/06/10 08:52:48;;;;;;;1.98;1.40;;;23.20;99.90;;;;;;5012446;28;20125;-73
2023/06/10 08:55:27;;;;;;;2.58;1.90;;;23.20;99.90;;;;;;4978880;28;20038;-73
2023/06/10 08:57:53;;;;;;;2.97;2.03;;;23.40;29.10;;;;;;4994620;28;20037;-72
2023/06/10 09:00:19;;;;;;;2.85;1.83;;;23.40;99.90;;;;;;4994427;28;20049;-72
2023/06/10 09:02:46;;;;;;;5.18;2.03;;;23.50;99.90;;;;;;4978386;28;20042;-72
2023/06/10 09:05:13;;;;;;;2.70;2.10;;;23.40;99.90;;;;;;4962186;28;20386;-73
2023/06/10 09:07:39;;;;;;;3.38;1.90;;;23.50;99.90;;;;;;4994079;28;20045;-72
2023/06/10 09:10:07;;;;;;;2.75;1.90;;;23.70;99.90;;;;;;4994502;28;20056;-72
2023/06/10 09:12:37;;;;;;;2.38;1.63;;;23.60;99.90;;;;;;5012478;28;20041;-72
2023/06/10 09:15:04;;;;;;;2.67;1.70;;;23.70;99.90;;;;;;4993763;28;20053;-74
2023/06/10 09:17:30;;;;;;;2.17;1.50;;;23.90;99.90;;;;;;4977883;28;20406;-73
2023/06/10 09:19:56;;;;;;;2.55;1.50;;;24.10;99.90;;;;;;4994289;28;20124;-73
2023/06/10 09:22:23;;;;;;;2.83;1.50;;;24.30;99.90;;;;;;4977696;28;20045;-72
2023/06/10 09:24:49;;;;;;;2.00;1.40;;;24.50;99.90;;;;;;4993599;28;20058;-72
2023/06/10 09:27:14;;;;;;;1.85;1.40;;;24.60;99.90;;;;;;4994166;28;20098;-72
2023/06/10 09:29:50;;;;;;;1.95;1.40;;;24.70;99.90;;;;;;5011841;28;20052;-72
2023/06/10 09:32:18;;;;;;;3.22;1.55;;;24.80;99.90;;;;;;4978095;28;20063;-72
2023/06/10 09:34:46;;;;;;;2.20;1.70;;;25.00;99.90;;;;;;4993759;28;20060;-72
2023/06/10 09:37:13;;;;;;;2.45;1.73;;;25.00;70.70;;;;;;4977559;28;20041;-72
2023/06/10 09:39:39;;;;;;;2.50;1.70;;;25.10;99.00;;;;;;4978165;28;20057;-72
2023/06/10 09:42:18;;;;;;;2.67;1.90;;;25.10;99.90;;;;;;4993935;28;20486;-72
2023/06/10 09:44:51;;;;;;;3.97;2.20;;;24.90;99.90;;;;;;4993882;28;20038;-72
2023/06/10 09:47:22;;;;;;;3.90;2.05;;;24.90;99.90;;;;;;4978064;28;20554;-73
2023/06/10 09:49:48;;;;;;;3.60;1.70;;;24.90;99.90;;;;;;4977708;28;20050;-73
2023/06/10 09:52:20;;;;;;;3.53;1.90;;;25.00;76.00;;;;;;4977021;28;20049;-73
2023/06/10 09:54:46;;;;;;;2.03;1.70;;;25.10;95.10;;;;;;4977529;28;20042;-73
2023/06/10 09:57:12;;;;;;;2.13;1.50;;;25.40;99.90;;;;;;4993274;28;20048;-72
2023/06/10 09:59:38;;;;;;;4.53;2.03;;;25.50;99.90;;;;;;4993522;28;20080;-72
2023/06/10 10:02:04;;;;;;;4.25;1.60;;;25.70;99.90;;;;;;4977233;28;20050;-72
2023/06/10 10:04:30;;;;;;;5.07;1.70;;;25.80;44.90;;;;;;4993490;28;20510;-72
2023/06/10 10:06:56;;;;;;;2.60;1.73;;;25.70;16.10;;;;;;4993185;28;20423;-73
2023/06/10 10:09:22;;;;;;;2.80;1.80;;;25.80;48.60;;;;;;4993459;28;20041;-73
2023/06/10 10:11:49;;;;;;;2.75;1.40;;;25.90;13.10;;;;;;4993328;28;20053;-72
2023/06/10 10:14:16;;;;;;;2.45;1.80;;;26.20;73.80;;;;;;4993254;28;20517;-71
2023/06/10 10:16:43;;;;;;;2.78;1.70;;;26.40;68.70;;;;;;5011222;28;20424;-73
2023/06/10 10:19:20;;;;;;;2.90;1.70;;;26.40;1.00;;;;;;4975662;28;20057;-73
2023/06/10 10:22:03;;;;;;;2.88;1.80;;;26.50;16.20;;;;;;4993300;28;20041;-73
2023/06/10 10:24:46;;;;;;;2.33;1.75;;;26.40;4.00;;;;;;4992958;28;20037;-73
2023/06/10 10:27:27;;;;;;;3.55;1.83;;;26.50;7.90;;;;;;4993405;28;20403;-73
2023/06/10 10:29:54;;;;;;;4.20;1.90;;;26.70;1.00;;;;;;4976433;28;20046;-73
2023/06/10 10:32:28;;;;;;;3.50;2.20;;;26.60;11.60;;;;;;4993288;28;20042;-74
2023/06/10 10:35:12;;;;;;;2.92;1.95;;;26.50;1.00;;;;;;4976348;28;20057;-72
2023/06/10 10:37:39;;;;;;;2.28;1.73;;;26.30;1.00;;;;;;4973696;28;20046;-72
2023/06/10 10:40:06;;;;;;;4.38;2.47;;;26.40;1.00;;;;;;4973470;28;20122;-73
2023/06/10 10:42:32;;;;;;;2.58;1.90;;;26.40;1.00;;;;;;4973480;28;20581;-72
2023/06/10 10:44:59;;;;;;;2.85;1.80;;;26.50;1.00;;;;;;4976736;28;20422;-73
2023/06/10 10:47:30;;;;;;;4.38;2.00;;;26.50;1.00;;;;;;4993106;28;20041;-73
2023/06/10 10:49:59;;;;;;;5.10;2.20;;;26.50;1.00;;;;;;4992748;28;20543;-73
2023/06/10 10:52:25;;;;;;;2.47;1.70;;;26.70;1.00;;;;;;5009976;28;20490;-73
2023/06/10 10:54:53;;;;;;;2.75;1.60;;;26.80;1.00;;;;;;4993039;28;20057;-73
2023/06/10 10:57:23;;;;;;;2.30;1.75;;;26.80;1.00;;;;;;4992854;28;20470;-72
2023/06/10 10:59:51;;;;;;;2.80;2.08;;;26.80;1.00;;;;;;5010115;28;20096;-72
2023/06/10 11:02:33;;;;;;;2.45;1.80;;;26.90;1.00;;;;;;4976425;28;20045;-73
2023/06/10 11:05:01;;;;;;;2.97;1.85;;;27.00;99.90;;;;;;5010408;28;20042;-73
2023/06/10 11:07:29;;;;;;;2.22;1.55;;;26.90;99.90;;;;;;4993185;28;20177;-72
2023/06/10 11:10:13;;;;;;;2.08;1.50;;;27.10;99.90;;;;;;4992065;28;20485;-72
2023/06/10 11:12:54;;;;;;;5.03;2.00;;;27.30;99.90;;;;;;4976689;28;20120;-73
2023/06/10 11:15:23;;;;;;;3.05;2.15;;;27.40;99.90;;;;;;4992729;28;20333;-74
2023/06/10 11:18:07;;;;;;;2.58;1.75;;;27.50;99.90;;;;;;4993135;28;20037;-77
2023/06/10 11:21:06;;;;;;;4.28;2.10;;;27.70;99.90;;;;;;5010167;28;20081;-78
2023/06/10 11:23:32;;;;;;;3.42;2.25;;;27.80;99.90;;;;;;4950483;28;20060;-76
2023/06/10 11:26:21;;;;;;;2.63;2.05;;;27.60;99.90;;;;;;4976749;28;20490;-76
2023/06/10 11:28:47;;;;;;;2.67;1.88;;;27.70;99.90;;;;;;4992467;28;20111;-76
2023/06/10 11:31:23;;;;;;;3.63;2.08;;;27.90;99.90;;;;;;4996706;28;20045;-76
2023/06/10 11:33:52;;;;;;;;;;;28.00;99.90;;;;;;4996880;28;20049;-76
2023/06/10 11:36:18;;;;;;;4.18;1.90;;;28.10;99.90;;;;;;4996805;28;19943;-76
2023/06/10 11:38:44;;;;;;;3.15;2.00;;;28.10;99.90;;;;;;4996696;28;20395;-76
2023/06/10 11:41:12;;;;;;;2.78;1.70;;;28.20;99.90;;;;;;4996239;28;20061;-77
2023/06/10 11:43:44;;;;;;;1.75;1.60;;;28.20;99.90;;;;;;4995725;28;20033;-76
2023/06/10 11:46:11;;;;;;;2.60;1.80;;;28.30;99.90;;;;;;4996324;28;20057;-76
2023/06/10 11:48:36;;;;;;;2.90;1.63;;;28.30;99.90;;;;;;4996278;28;20050;-76
2023/06/10 11:51:08;;;;;;;2.38;1.70;;;28.40;99.90;;;;;;4996019;28;20054;-78
2023/06/10 11:53:35;;;;;;;2.10;1.50;;;28.50;99.90;;;;;;4995690;28;20045;-76
2023/06/10 11:56:01;;;;;;;2.40;1.52;;;28.70;99.90;;;;;;5013697;28;20123;-73
2023/06/10 11:58:26;;;;;;;2.80;1.90;;;28.90;99.90;;;;;;4979550;28;20054;-73
2023/06/10 12:00:56;;;;;;;1.80;1.50;;;28.70;99.90;;;;;;4979642;28;20490;-72
2023/06/10 12:03:22;;;;;;;2.17;1.33;;;28.90;99.90;;;;;;5013150;28;20103;-74
2023/06/10 12:06:02;;;;;;;2.75;1.40;;;28.90;99.90;;;;;;4995614;28;20046;-73
2023/06/10 12:08:28;;;;;;;1.95;1.40;;;28.90;99.90;;;;;;4994962;28;20100;-73
2023/06/10 12:10:55;;;;;;;1.85;1.58;;;29.00;99.90;;;;;;4995775;28;20049;-72
2023/06/10 12:13:21;;;;;;;2.17;1.50;;;28.90;99.90;;;;;;4995513;28;20057;-73
2023/06/10 12:15:47;;;;;;;3.13;1.90;;;29.00;99.90;;;;;;5013293;28;20146;-73
2023/06/10 12:18:21;;;;;;;2.10;1.65;;;29.20;99.90;;;;;;4959753;28;20609;-73
2023/06/10 12:20:48;;;;;;;2.35;1.58;;;29.20;99.90;;;;;;4976026;28;20105;-73
2023/06/10 12:23:14;;;;;;;2.20;1.67;;;29.10;99.90;;;;;;4988434;28;20046;-73
2023/06/10 12:25:50;;;;;;;3.50;1.90;;;29.30;99.90;;;;;;4993205;28;20521;-73
2023/06/10 12:28:18;;;;;;;2.58;1.70;;;29.40;99.90;;;;;;5012949;28;20458;-73
2023/06/10 12:30:44;;;;;;;1.95;1.60;;;29.40;99.90;;;;;;4963449;28;20489;-74
2023/06/10 12:33:17;;;;;;;2.40;1.65;;;29.60;99.90;;;;;;4979015;28;20061;-71
2023/06/10 12:35:50;;;;;;;2.22;1.70;;;29.60;99.90;;;;;;4994674;28;20056;-73
2023/06/10 12:38:28;;;;;;;2.70;1.63;;;29.70;99.90;;;;;;5012836;28;20133;-72
2023/06/10 12:41:00;;;;;;;4.50;2.00;;;29.30;99.90;;;;;;5011933;28;20046;-74
2023/06/10 12:43:26;;;;;;;2.42;1.70;;;29.20;99.90;;;;;;4979020;28;20081;-74
2023/06/10 12:45:52;;;;;;;2.97;1.52;;;29.20;99.90;;;;;;4995269;28;20458;-74
2023/06/10 12:48:24;;;;;;;4.25;1.88;;;29.20;99.90;;;;;;4978751;28;20084;-73
2023/06/10 12:50:55;;;;;;;3.35;1.90;;;29.20;99.90;;;;;;4994622;28;20115;-74
2023/06/10 12:53:22;;;;;;;4.32;2.00;;;29.20;99.90;;;;;;4995105;28;20403;-73